Time;durP1;ratioP1;P1;durP2;ratioP2;P2;SDS_P1;SDS_P2;PMS_P1;PMS_P2;Temp;Humidity;BMP_temperature;BMP_pressure;BME280_temperature;BME280_humidity;BME280_pressure;Samples;Min_cycle;Max_cycle;Signal;HPM_P1;HPM_P2
2021/03/12 00:03:34;;;;;;;0.10;0.10;;;9.70;69.90;;;;;;20661266;28;20158;-76
2021/03/12 00:13:35;;;;;;;0.00;0.00;;;9.70;69.90;;;;;;20710603;28;20042;-76
2021/03/12 00:23:36;;;;;;;0.40;0.20;;;9.70;69.80;;;;;;20724192;28;20118;-76
2021/03/12 00:33:36;;;;;;;0.10;0.10;;;9.70;69.80;;;;;;20723702;28;20042;-76
2021/03/12 00:43:37;;;;;;;0.00;0.00;;;9.70;69.70;;;;;;20748100;28;20113;-76
2021/03/12 00:53:45;;;;;;;0.63;0.30;;;9.60;69.60;;;;;;20737344;28;20796;-76
2021/03/12 01:03:46;;;;;;;0.20;0.15;;;9.60;69.60;;;;;;20750050;28;20030;-78
2021/03/12 01:13:48;;;;;;;0.43;0.43;;;9.60;69.60;;;;;;20718408;28;20037;-77
2021/03/12 01:23:50;;;;;;;0.00;0.00;;;9.60;69.60;;;;;;20749173;28;20172;-76
2021/03/12 01:33:52;;;;;;;0.57;0.20;;;9.60;69.60;;;;;;20749365;28;20041;-78
2021/03/12 01:44:01;;;;;;;1.23;0.30;;;9.60;69.60;;;;;;20750657;28;20037;-76
2021/03/12 01:54:05;;;;;;;0.00;0.00;;;9.60;69.50;;;;;;20706859;28;20389;-77
2021/03/12 02:04:06;;;;;;;0.00;0.00;;;9.60;69.50;;;;;;20718745;28;20060;-76
2021/03/12 02:14:33;;;;;;;0.40;0.13;;;9.60;69.30;;;;;;20720123;28;20038;-76
2021/03/12 02:24:34;;;;;;;;;;;9.60;69.40;;;;;;20717975;28;20034;-76
2021/03/12 02:34:40;;;;;;;2.17;0.30;;;9.60;69.30;;;;;;20732515;28;19940;-77
2021/03/12 02:44:49;;;;;;;0.35;0.20;;;9.60;69.30;;;;;;20702702;28;20030;-77
2021/03/12 02:54:50;;;;;;;0.30;0.28;;;9.60;69.30;;;;;;20714780;28;20710;-77
2021/03/12 03:04:57;;;;;;;0.10;0.10;;;9.60;69.20;;;;;;20715052;28;20548;-76
2021/03/12 03:15:03;;;;;;;3.05;0.43;;;9.60;69.20;;;;;;20714463;28;20038;-77
2021/03/12 03:25:07;;;;;;;0.10;0.10;;;9.60;69.90;;;;;;20714065;28;20077;-76
2021/03/12 03:35:09;;;;;;;0.20;0.13;;;9.60;69.10;;;;;;20711661;28;20414;-77
2021/03/12 03:45:11;;;;;;;0.10;0.10;;;9.60;69.20;;;;;;20711749;28;20033;-78
2021/03/12 03:55:16;;;;;;;0.70;0.57;;;9.60;69.20;;;;;;20711109;28;20048;-76
2021/03/12 04:05:17;;;;;;;0.45;0.20;;;9.60;69.20;;;;;;20709696;28;20121;-76
2021/03/12 04:15:25;;;;;;;0.15;0.10;;;9.60;69.20;;;;;;20709336;28;20037;-78
2021/03/12 04:25:28;;;;;;;1.75;0.35;;;9.60;69.20;;;;;;20707956;28;20048;-78
2021/03/12 04:35:29;;;;;;;0.10;0.10;;;9.60;69.20;;;;;;20691938;28;20061;-76
2021/03/12 04:45:33;;;;;;;0.17;0.17;;;9.50;69.30;;;;;;20708285;28;20029;-76
2021/03/12 04:55:35;;;;;;;7.38;0.38;;;9.50;69.20;;;;;;20707865;28;20038;-77
2021/03/12 05:05:36;;;;;;;0.20;0.20;;;9.60;69.30;;;;;;20722993;28;20044;-77
2021/03/12 05:15:37;;;;;;;0.77;0.40;;;9.40;69.20;;;;;;20691424;28;20046;-77
2021/03/12 05:25:40;;;;;;;0.35;0.35;;;9.50;69.80;;;;;;20712417;28;20050;-76
2021/03/12 05:35:40;;;;;;;0.05;0.05;;;9.50;69.20;;;;;;20705646;28;20046;-76
2021/03/12 05:45:41;;;;;;;0.55;0.25;;;9.50;69.10;;;;;;20737144;28;20045;-77
2021/03/12 05:55:46;;;;;;;0.25;0.25;;;9.50;69.10;;;;;;20736330;28;20394;-78
2021/03/12 06:05:49;;;;;;;0.85;0.20;;;9.50;69.00;;;;;;20710223;28;20030;-71
2021/03/12 06:15:53;;;;;;;1.65;0.20;;;9.40;69.00;;;;;;20749083;28;20022;-74
2021/03/12 06:25:58;;;;;;;0.22;0.10;;;9.50;69.00;;;;;;20741744;28;20034;-74
2021/03/12 06:36:26;;;;;;;1.75;0.10;;;9.50;69.00;;;;;;20743811;28;20453;-74
2021/03/12 06:46:44;;;;;;;0.45;0.30;;;9.50;68.90;;;;;;20718196;28;20037;-73
2021/03/12 06:56:48;;;;;;;0.38;0.17;;;9.50;69.00;;;;;;20711907;28;20046;-71
2021/03/12 07:06:56;;;;;;;2.83;0.52;;;9.60;69.50;;;;;;20741751;28;20038;-76
2021/03/12 07:17:01;;;;;;;6.13;0.45;;;9.80;69.40;;;;;;20715841;28;20065;-75
2021/03/12 07:27:02;;;;;;;0.17;0.17;;;9.90;69.20;;;;;;20723851;28;20069;-76
2021/03/12 07:37:14;;;;;;;0.10;0.10;;;10.00;68.70;;;;;;20751561;28;20030;-77
2021/03/12 07:47:27;;;;;;;0.35;0.22;;;10.10;68.00;;;;;;20745916;28;20495;-74
2021/03/12 07:57:31;;;;;;;0.55;0.50;;;10.00;67.40;;;;;;20762202;28;20120;-73
2021/03/12 08:07:50;;;;;;;0.85;0.68;;;10.00;67.20;;;;;;20754789;28;20111;-74
2021/03/12 08:17:58;;;;;;;0.50;0.22;;;10.00;67.20;;;;;;21196417;23;20579;-75
2021/03/12 08:28:08;;;;;;;1.33;0.50;;;9.90;66.90;;;;;;20838673;28;20041;-73
2021/03/12 08:38:27;;;;;;;0.22;0.22;;;9.90;66.80;;;;;;20762904;28;20371;-74
2021/03/12 08:48:48;;;;;;;0.80;0.47;;;9.80;66.80;;;;;;20767350;28;20505;-76
2021/03/12 08:58:50;;;;;;;0.15;0.15;;;9.90;66.90;;;;;;20836683;28;20042;-76
2021/03/12 09:09:26;;;;;;;0.10;0.10;;;10.00;66.80;;;;;;20798727;28;20034;-75
2021/03/12 09:19:45;;;;;;;0.65;0.40;;;9.90;66.30;;;;;;20834878;28;20045;-75
2021/03/12 09:29:53;;;;;;;0.70;0.35;;;9.90;66.10;;;;;;20822129;28;20033;-77
2021/03/12 09:39:57;;;;;;;0.40;0.40;;;9.90;66.00;;;;;;20820722;28;20444;-75
2021/03/12 09:50:17;;;;;;;1.08;0.68;;;9.90;65.80;;;;;;20802613;28;20482;-77
2021/03/12 10:00:33;;;;;;;1.30;0.50;;;9.80;65.50;;;;;;20821540;28;20124;-77
2021/03/12 10:10:41;;;;;;;0.93;0.28;;;9.80;65.40;;;;;;20769976;28;20045;-78
2021/03/12 10:20:42;;;;;;;0.75;0.55;;;9.80;65.20;;;;;;20796285;28;20184;-80
2021/03/12 10:30:44;;;;;;;0.32;0.30;;;9.80;65.80;;;;;;20800717;28;20029;-72
2021/03/12 10:40:52;;;;;;;0.50;0.38;;;9.80;65.00;;;;;;20796396;28;20049;-76
2021/03/12 10:50:54;;;;;;;0.38;0.38;;;9.80;65.00;;;;;;20775890;28;20032;-75
2021/03/12 11:01:11;;;;;;;1.85;0.85;;;9.80;64.90;;;;;;20773543;28;20446;-76
2021/03/12 11:11:14;;;;;;;1.15;0.73;;;9.80;64.50;;;;;;20767761;28;20038;-77
2021/03/12 11:21:14;;;;;;;1.20;1.00;;;9.80;64.40;;;;;;20790815;28;20497;-74
2021/03/12 11:31:15;;;;;;;0.52;0.47;;;9.80;64.30;;;;;;20804500;28;20128;-78
2021/03/12 11:41:15;;;;;;;0.93;0.67;;;9.90;64.10;;;;;;20860763;28;20359;-73
2021/03/12 11:51:16;;;;;;;0.85;0.50;;;9.80;63.60;;;;;;20809944;28;20729;-72
2021/03/12 12:01:17;;;;;;;0.55;0.50;;;9.90;63.40;;;;;;20824816;28;20038;-75
2021/03/12 12:11:17;;;;;;;0.83;0.73;;;9.90;63.10;;;;;;20837208;28;20503;-73
2021/03/12 12:21:18;;;;;;;0.75;0.28;;;9.90;62.70;;;;;;20820673;28;20359;-73
2021/03/12 12:31:19;;;;;;;4.03;0.40;;;9.90;62.30;;;;;;20822542;28;20052;-74
2021/03/12 12:41:19;;;;;;;0.77;0.50;;;9.90;62.00;;;;;;20809047;28;20032;-74
2021/03/12 12:51:20;;;;;;;2.25;0.28;;;9.90;61.80;;;;;;20764361;28;20308;-73
2021/03/12 13:01:21;;;;;;;1.43;1.23;;;9.90;61.50;;;;;;20812726;28;20034;-74
2021/03/12 13:11:21;;;;;;;1.40;0.40;;;9.90;61.20;;;;;;20826201;28;20387;-74
2021/03/12 13:21:22;;;;;;;0.60;0.35;;;9.90;61.20;;;;;;20778889;28;20041;-75
2021/03/12 13:31:22;;;;;;;0.17;0.17;;;9.90;61.30;;;;;;20767784;28;20077;-74
2021/03/12 13:41:23;;;;;;;1.00;0.50;;;9.90;61.10;;;;;;20774897;28;20038;-80
2021/03/12 13:51:24;;;;;;;0.68;0.45;;;9.90;61.20;;;;;;20771616;28;20046;-78
2021/03/12 14:01:25;;;;;;;0.55;0.20;;;9.90;61.20;;;;;;20858164;28;20037;-74
2021/03/12 14:11:25;;;;;;;0.22;0.20;;;10.00;61.50;;;;;;20814083;28;20480;-75
2021/03/12 14:21:26;;;;;;;0.30;0.30;;;9.90;61.70;;;;;;20801324;28;20049;-76
2021/03/12 14:31:27;;;;;;;2.08;0.52;;;10.00;62.10;;;;;;20833391;28;20308;-76
2021/03/12 14:41:27;;;;;;;0.10;0.10;;;10.10;62.40;;;;;;20816029;28;20044;-71
2021/03/12 14:51:28;;;;;;;0.40;0.30;;;10.20;61.70;;;;;;20831971;28;20092;-78
2021/03/12 15:01:28;;;;;;;0.20;0.20;;;10.20;61.60;;;;;;20830676;28;20511;-76
2021/03/12 15:11:29;;;;;;;5.57;0.30;;;10.20;61.70;;;;;;20831284;28;20297;-76
2021/03/12 15:21:30;;;;;;;0.15;0.13;;;10.10;61.90;;;;;;20812900;28;20038;-76
2021/03/12 15:31:31;;;;;;;0.20;0.20;;;10.00;61.90;;;;;;20828541;28;20042;-77
2021/03/12 15:41:32;;;;;;;0.20;0.20;;;10.00;62.00;;;;;;20811552;28;20036;-76
2021/03/12 15:51:33;;;;;;;0.10;0.05;;;9.90;62.40;;;;;;20827487;28;20037;-76
2021/03/12 16:01:38;;;;;;;0.47;0.32;;;9.90;62.70;;;;;;20826423;28;20527;-74
2021/03/12 16:11:40;;;;;;;0.10;0.10;;;9.90;62.90;;;;;;20809048;28;20033;-75
2021/03/12 16:21:44;;;;;;;0.20;0.20;;;9.90;63.00;;;;;;20808219;28;20025;-74
2021/03/12 16:32:03;;;;;;;0.13;0.10;;;9.90;63.30;;;;;;20822919;28;20124;-74
2021/03/12 16:42:07;;;;;;;0.52;0.17;;;9.90;63.50;;;;;;20803142;28;20025;-75
2021/03/12 16:52:08;;;;;;;0.15;0.15;;;9.90;63.60;;;;;;20783335;28;20430;-75
2021/03/12 17:02:09;;;;;;;0.20;0.20;;;9.90;63.90;;;;;;20806495;28;20029;-74
2021/03/12 17:12:11;;;;;;;0.10;0.10;;;9.80;64.10;;;;;;20796585;28;20401;-78
2021/03/12 17:22:12;;;;;;;0.77;0.50;;;9.80;64.30;;;;;;20817434;28;20508;-75
2021/03/12 17:32:15;;;;;;;0.00;0.00;;;9.80;64.40;;;;;;20812021;28;20037;-79
2021/03/12 17:42:15;;;;;;;0.43;0.30;;;9.80;64.60;;;;;;20825980;28;20279;-81
2021/03/12 17:52:16;;;;;;;0.10;0.10;;;9.70;64.60;;;;;;20835643;28;20038;-75
2021/03/12 18:02:17;;;;;;;3.83;0.13;;;9.70;64.80;;;;;;20819432;28;20352;-77
2021/03/12 18:12:17;;;;;;;2.90;0.32;;;9.70;64.80;;;;;;20797942;28;20304;-77
2021/03/12 18:22:18;;;;;;;0.57;0.40;;;9.60;64.70;;;;;;20847939;28;20037;-78
2021/03/12 18:32:19;;;;;;;6.32;0.38;;;9.60;64.90;;;;;;20832465;28;20073;-78
2021/03/12 18:42:20;;;;;;;0.43;0.43;;;9.70;65.00;;;;;;20798653;28;20033;-76
2021/03/12 18:52:20;;;;;;;0.10;0.10;;;9.70;65.10;;;;;;20815137;28;20516;-77
2021/03/12 19:02:21;;;;;;;0.08;0.03;;;9.60;65.30;;;;;;20798137;28;20127;-76
2021/03/12 19:12:22;;;;;;;1.75;0.15;;;9.60;65.40;;;;;;20813582;28;20033;-76
2021/03/12 19:22:22;;;;;;;0.47;0.10;;;9.60;65.60;;;;;;20829627;28;20116;-76
2021/03/12 19:32:23;;;;;;;3.20;0.20;;;9.60;65.70;;;;;;20812058;28;20061;-77
2021/03/12 19:42:24;;;;;;;3.40;0.30;;;9.60;65.80;;;;;;20809856;28;20033;-74
2021/03/12 19:52:25;;;;;;;0.73;0.10;;;9.60;65.90;;;;;;20779298;28;20044;-76
2021/03/12 20:02:25;;;;;;;0.08;0.08;;;9.70;66.10;;;;;;20798774;28;20033;-76
2021/03/12 20:12:26;;;;;;;0.10;0.10;;;9.60;66.20;;;;;;20792420;28;20376;-73
2021/03/12 20:22:26;;;;;;;0.20;0.20;;;9.60;66.30;;;;;;20824561;28;20284;-75
2021/03/12 20:32:27;;;;;;;2.67;0.22;;;9.60;66.30;;;;;;20797348;28;20041;-78
2021/03/12 20:42:28;;;;;;;0.22;0.20;;;9.60;66.40;;;;;;20907496;28;20090;-77
2021/03/12 20:52:28;;;;;;;0.10;0.10;;;9.60;66.50;;;;;;20830526;28;20478;-74
2021/03/12 21:02:29;;;;;;;0.10;0.10;;;9.50;66.40;;;;;;20806873;28;20473;-75
2021/03/12 21:12:29;;;;;;;3.70;0.75;;;9.60;66.50;;;;;;20821448;28;20512;-75
2021/03/12 21:22:30;;;;;;;0.57;0.30;;;9.60;66.60;;;;;;20789121;28;20034;-74
2021/03/12 21:32:31;;;;;;;0.25;0.20;;;9.60;66.50;;;;;;20805086;28;20037;-75
2021/03/12 21:42:33;;;;;;;0.10;0.10;;;9.60;66.50;;;;;;20803483;28;20053;-74
2021/03/12 21:52:33;;;;;;;0.13;0.05;;;9.50;66.40;;;;;;20816503;28;20041;-73
2021/03/12 22:02:34;;;;;;;0.00;0.00;;;9.50;66.40;;;;;;20817775;28;20025;-74
2021/03/12 22:12:35;;;;;;;0.80;0.20;;;9.50;66.40;;;;;;20817133;28;20496;-74
2021/03/12 22:22:36;;;;;;;0.10;0.10;;;9.50;66.40;;;;;;20782708;28;20516;-73
2021/03/12 22:32:36;;;;;;;0.10;0.10;;;9.50;66.40;;;;;;20833474;28;20048;-73
2021/03/12 22:42:37;;;;;;;0.10;0.10;;;9.50;66.40;;;;;;20816223;28;20040;-73
2021/03/12 22:52:38;;;;;;;0.10;0.10;;;9.50;66.50;;;;;;20815670;28;20073;-74
2021/03/12 23:02:39;;;;;;;0.00;0.00;;;9.50;66.40;;;;;;20832949;28;20041;-74
2021/03/12 23:12:40;;;;;;;0.55;0.20;;;9.50;66.50;;;;;;20813730;28;20045;-73
2021/03/12 23:22:52;;;;;;;0.20;0.05;;;9.50;66.50;;;;;;20812947;28;20076;-74
2021/03/12 23:32:52;;;;;;;0.05;0.05;;;9.50;66.50;;;;;;20780909;28;20100;-73
2021/03/12 23:42:53;;;;;;;0.08;0.08;;;9.50;66.50;;;;;;20828010;28;20025;-73
2021/03/12 23:52:53;;;;;;;1.10;0.15;;;9.50;66.50;;;;;;20810837;28;20037;-74
